ETHN

Niederstetten Airport

Niederstetten, Germany
METAR ETHN 161420Z 28010KT 4000 -SN BR BKN007 BKN020 OVC045 01/M01 Q1010 GRN
Observed Flight Rules
Dec-16 @ 14:20 UTC (27 minutes ago) Instrument Flight Rules
Wind Visibility Clouds Conditions
280° at 10 knots 4,007 meters
  • Broken at 700' AGL
  • Broken at 2,000' AGL
  • Overcast at 4,500' AGL
  • Light Snow
  • Mist
Temperatures Readings
Current 1°C / 34°F
Dewpoint -1°C / 30°F
Humidity 87%
Altimeter 29.82" Hg
Pressure 1010 hPa
Elevation 473
METAR ETHN 161420Z 28010KT 4000 -SN BR BKN007 BKN020 OVC045 01/M01 Q1010 GRN
Observed Flight Rules
Dec-16 @ 14:20 UTC
(27 minutes ago)
IFR
Wind Visibility
280° at 10 knots 4,007 meters
Clouds
  • Broken at 700' AGL
  • Broken at 2,000' AGL
  • Overcast at 4,500' AGL
Conditions
  • Light Snow
  • Mist
Temperature Dewpoint
1°C / 34°F -1°C / 30°F
Humidity Altimeter Pressure
87% 29.82" Hg 1010 hPa